createdAt,value
2022-11-12T00:02:13.300Z,11.70
2022-11-12T00:05:00.846Z,10.90
2022-11-12T00:07:48.316Z,12.23
2022-11-12T00:10:36.021Z,12.63
2022-11-12T00:13:23.202Z,13.50
2022-11-12T00:16:10.853Z,14.47
2022-11-12T00:18:58.691Z,11.17
2022-11-12T00:21:46.261Z,12.47
2022-11-12T00:24:34.034Z,14.30
2022-11-12T00:27:21.681Z,13.97
2022-11-12T00:30:09.552Z,14.40
2022-11-12T00:32:56.974Z,14.83
2022-11-12T00:35:44.437Z,14.23
2022-11-12T00:38:32.568Z,12.03
2022-11-12T00:41:20.349Z,13.00
2022-11-12T00:44:08.047Z,12.37
2022-11-12T00:46:55.226Z,13.23
2022-11-12T00:49:43.153Z,12.07
2022-11-12T00:52:30.607Z,11.40
2022-11-12T00:55:17.876Z,12.30
2022-11-12T00:58:06.194Z,11.10
2022-11-12T01:00:53.831Z,11.80
2022-11-12T01:03:42.753Z,11.70
2022-11-12T01:06:30.210Z,10.73
2022-11-12T01:09:17.720Z,12.17
2022-11-12T01:12:06.801Z,12.07
2022-11-12T01:14:54.509Z,11.67
2022-11-12T01:17:42.588Z,11.83
2022-11-12T01:20:30.093Z,9.33
2022-11-12T01:23:17.711Z,11.40
2022-11-12T01:26:08.555Z,9.30
2022-11-12T01:28:56.790Z,11.43
2022-11-12T01:31:44.536Z,11.73
2022-11-12T01:34:32.160Z,10.17
2022-11-12T01:37:19.705Z,10.40
2022-11-12T01:40:07.954Z,9.07
2022-11-12T01:42:55.837Z,9.57
2022-11-12T01:45:46.393Z,9.40
2022-11-12T01:48:42.524Z,6.33
2022-11-12T01:51:33.291Z,9.57
2022-11-12T01:54:23.145Z,10.55
2022-11-12T01:57:13.517Z,8.87
2022-11-12T02:00:04.556Z,10.45
2022-11-12T02:02:55.445Z,8.73
2022-11-12T02:05:45.406Z,10.97
2022-11-12T02:08:34.113Z,13.30
2022-11-12T02:11:22.982Z,11.63
2022-11-12T02:14:10.666Z,11.63
2022-11-12T02:16:59.378Z,11.22
2022-11-12T02:19:48.252Z,9.60
2022-11-12T02:22:35.752Z,10.37
2022-11-12T02:25:25.600Z,11.73
2022-11-12T02:28:16.037Z,9.43
2022-11-12T02:31:03.536Z,10.27
2022-11-12T02:33:51.570Z,13.37
2022-11-12T02:36:39.299Z,12.80
2022-11-12T02:39:27.026Z,11.87
2022-11-12T02:42:14.608Z,12.93
2022-11-12T02:45:01.874Z,11.30
2022-11-12T02:47:49.507Z,12.63
2022-11-12T02:50:36.951Z,11.57
2022-11-12T02:53:24.477Z,12.47
2022-11-12T02:56:12.215Z,12.05
2022-11-12T02:58:59.846Z,14.40
2022-11-12T03:01:47.606Z,14.67
2022-11-12T03:04:35.205Z,11.67
2022-11-12T03:07:22.079Z,11.57
2022-11-12T03:10:09.842Z,12.10
2022-11-12T03:13:02.533Z,9.87
2022-11-12T03:15:50.011Z,10.23
2022-11-12T03:18:37.952Z,10.40
2022-11-12T03:21:25.618Z,10.03
2022-11-12T03:24:12.895Z,8.47
2022-11-12T03:27:00.406Z,8.97
2022-11-12T03:29:48.074Z,7.97
2022-11-12T03:32:35.492Z,7.90
2022-11-12T03:35:23.888Z,8.73
2022-11-12T03:38:11.609Z,7.63
2022-11-12T03:40:59.032Z,8.27
2022-11-12T03:43:46.452Z,6.60
2022-11-12T03:46:33.999Z,6.90
2022-11-12T03:49:21.558Z,8.07
2022-11-12T03:52:08.998Z,7.33
2022-11-12T03:54:56.663Z,7.13
2022-11-12T03:57:44.431Z,6.93
2022-11-12T04:00:32.699Z,7.67
2022-11-12T04:03:20.214Z,7.08
2022-11-12T04:06:25.502Z,5.80
2022-11-12T04:09:12.963Z,7.72
2022-11-12T04:12:02.227Z,6.43
2022-11-12T04:14:49.871Z,7.50
2022-11-12T04:17:55.186Z,8.33
2022-11-12T04:21:00.619Z,7.37
2022-11-12T04:23:48.294Z,7.60
2022-11-12T04:26:36.138Z,7.17
2022-11-12T04:29:41.399Z,7.47
2022-11-12T04:32:30.078Z,6.73
2022-11-12T04:35:18.913Z,7.67
2022-11-12T04:38:06.979Z,6.00
2022-11-12T04:41:12.093Z,6.27
2022-11-12T04:44:17.433Z,7.30
2022-11-12T04:47:05.232Z,6.93
2022-11-12T04:49:52.882Z,6.73
2022-11-12T04:52:40.480Z,7.67
2022-11-12T04:55:27.864Z,6.73
2022-11-12T04:58:15.089Z,6.27
2022-11-12T05:01:03.767Z,7.47
2022-11-12T05:03:51.572Z,7.00
2022-11-12T05:06:53.949Z,6.60
2022-11-12T05:09:42.413Z,7.00
2022-11-12T05:12:30.157Z,6.40
2022-11-12T05:15:17.799Z,6.80
2022-11-12T05:18:06.105Z,6.95
2022-11-12T05:20:54.751Z,6.23
2022-11-12T05:23:41.964Z,5.37
2022-11-12T05:26:30.355Z,5.93
2022-11-12T05:29:18.673Z,4.80
2022-11-12T05:32:08.292Z,4.67
2022-11-12T05:34:56.012Z,5.12
2022-11-12T05:37:44.566Z,5.93
2022-11-12T05:40:32.043Z,7.07
2022-11-12T05:43:19.667Z,7.00
2022-11-12T05:46:07.328Z,6.40
2022-11-12T05:48:54.796Z,6.87
2022-11-12T05:51:42.589Z,6.53
2022-11-12T05:54:30.028Z,9.93
2022-11-12T05:57:17.536Z,7.53
2022-11-12T06:00:06.662Z,6.90
2022-11-12T06:02:57.238Z,12.17
2022-11-12T06:05:44.692Z,12.53
2022-11-12T06:08:32.350Z,13.17
2022-11-12T06:11:20.088Z,12.25
2022-11-12T06:14:08.306Z,9.47
2022-11-12T06:16:56.070Z,10.83
2022-11-12T06:19:43.520Z,10.70
2022-11-12T06:22:31.383Z,11.25
2022-11-12T06:25:19.019Z,10.60
2022-11-12T06:28:07.020Z,11.63
2022-11-12T06:30:54.473Z,11.47
2022-11-12T06:33:42.437Z,12.17
2022-11-12T06:36:29.986Z,11.33
2022-11-12T06:39:17.187Z,13.13
2022-11-12T06:42:05.056Z,12.97
2022-11-12T06:44:52.718Z,13.23
2022-11-12T06:47:40.174Z,13.30
2022-11-12T06:50:27.866Z,15.20
2022-11-12T06:53:15.102Z,15.37
2022-11-12T06:56:04.495Z,16.00
2022-11-12T06:58:52.219Z,13.78
2022-11-12T07:01:39.964Z,13.03
2022-11-12T07:04:27.643Z,13.18
2022-11-12T07:07:15.256Z,10.70
2022-11-12T07:10:02.715Z,12.13
2022-11-12T07:12:53.343Z,11.30
2022-11-12T07:15:39.698Z,13.40
2022-11-12T07:18:28.758Z,11.93
2022-11-12T07:21:19.289Z,11.10
2022-11-12T07:24:07.422Z,11.53
2022-11-12T07:26:55.088Z,9.77
2022-11-12T07:29:48.101Z,10.03
2022-11-12T07:32:32.252Z,11.10
2022-11-12T07:35:19.630Z,11.00
2022-11-12T07:38:06.821Z,10.97
2022-11-12T07:40:56.246Z,11.27
2022-11-12T07:43:45.415Z,11.70
2022-11-12T07:46:32.892Z,10.83
2022-11-12T07:49:20.380Z,11.87
2022-11-12T07:52:08.152Z,11.60
2022-11-12T07:54:56.000Z,10.07
2022-11-12T07:57:43.621Z,13.33
2022-11-12T08:00:31.370Z,10.63
2022-11-12T08:03:19.090Z,9.73
2022-11-12T08:06:07.061Z,9.60
2022-11-12T08:08:55.492Z,10.93
2022-11-12T08:11:43.360Z,10.20
2022-11-12T08:14:31.048Z,9.57
2022-11-12T08:17:18.669Z,7.70
2022-11-12T08:20:07.579Z,7.37
2022-11-12T08:22:55.277Z,6.10
2022-11-12T08:25:43.007Z,6.07
2022-11-12T08:28:32.965Z,5.13
2022-11-12T08:31:22.821Z,5.03
2022-11-12T08:34:15.159Z,3.93
2022-11-12T08:37:02.236Z,3.33
2022-11-12T08:39:49.976Z,2.17
2022-11-12T08:42:38.004Z,3.30
2022-11-12T08:45:26.249Z,2.73
2022-11-12T08:48:15.319Z,2.55
2022-11-12T08:51:06.804Z,2.63
2022-11-12T08:53:53.991Z,2.15
2022-11-12T08:56:41.899Z,2.50
2022-11-12T08:59:29.734Z,3.00
2022-11-12T09:02:16.950Z,2.60
2022-11-12T09:05:04.720Z,1.55
2022-11-12T09:08:00.462Z,2.60
2022-11-12T09:10:48.542Z,1.80
2022-11-12T09:13:36.461Z,2.55
2022-11-12T09:16:24.275Z,2.02
2022-11-12T09:19:11.801Z,2.20
2022-11-12T09:21:59.290Z,2.43
2022-11-12T09:24:46.835Z,1.87
2022-11-12T09:27:34.530Z,2.37
2022-11-12T09:30:22.618Z,2.08
2022-11-12T09:33:09.824Z,2.00
2022-11-12T09:35:59.294Z,1.93
2022-11-12T09:38:46.746Z,2.47
2022-11-12T09:41:37.783Z,2.07
2022-11-12T09:44:25.283Z,1.77
2022-11-12T09:47:18.756Z,1.23
2022-11-12T09:50:24.671Z,1.53
2022-11-12T09:53:32.693Z,2.00
2022-11-12T09:56:22.423Z,2.25
2022-11-12T09:59:16.219Z,2.10
2022-11-12T10:02:07.215Z,2.33
2022-11-12T10:05:00.443Z,1.40
2022-11-12T10:08:17.298Z,1.60
2022-11-12T10:11:38.636Z,1.70
2022-11-12T10:14:49.985Z,1.45
2022-11-12T10:17:40.280Z,2.55
2022-11-12T10:20:33.561Z,1.93
2022-11-12T10:23:25.163Z,2.07
2022-11-12T10:26:18.539Z,1.15
2022-11-12T10:29:15.903Z,2.12
2022-11-12T10:32:04.213Z,2.63
2022-11-12T10:34:51.929Z,1.50
2022-11-12T10:37:58.788Z,1.43
2022-11-12T10:40:46.539Z,1.43
2022-11-12T10:43:34.053Z,1.50
2022-11-12T10:46:33.284Z,1.50
2022-11-12T10:49:23.735Z,1.90
2022-11-12T10:52:25.316Z,1.40
2022-11-12T10:55:24.821Z,1.70
2022-11-12T10:58:17.161Z,1.70
2022-11-12T11:01:08.686Z,1.50
2022-11-12T11:03:58.795Z,1.57
2022-11-12T11:06:46.088Z,1.37
2022-11-12T11:09:35.326Z,1.40
2022-11-12T11:12:31.852Z,1.77
2022-11-12T11:15:24.980Z,1.53
2022-11-12T11:18:13.712Z,1.40
2022-11-12T11:21:25.433Z,1.70
2022-11-12T11:24:18.977Z,1.67
2022-11-12T11:27:29.783Z,1.40
2022-11-12T11:30:23.719Z,1.80
2022-11-12T11:33:26.126Z,1.72
2022-11-12T11:36:28.053Z,1.60
2022-11-12T11:39:20.898Z,1.50
2022-11-12T11:42:35.516Z,1.73
2022-11-12T11:45:34.555Z,2.50
2022-11-12T11:48:39.432Z,1.70
2022-11-12T11:51:46.485Z,1.70
2022-11-12T11:54:58.081Z,1.77
2022-11-12T11:58:22.045Z,1.53
2022-11-12T12:01:33.274Z,2.47
2022-11-12T12:04:43.016Z,1.90
2022-11-12T12:07:39.840Z,2.07
2022-11-12T12:11:01.271Z,1.13
2022-11-12T12:13:37.114Z,2.43
2022-11-12T12:16:30.235Z,1.70
2022-11-12T12:19:28.234Z,2.43
2022-11-12T12:22:18.439Z,1.63
2022-11-12T12:25:12.602Z,2.00
2022-11-12T12:28:15.649Z,2.13
2022-11-12T12:31:09.219Z,1.90
2022-11-12T12:34:14.465Z,2.00
2022-11-12T12:37:13.207Z,1.87
2022-11-12T12:40:19.787Z,1.60
2022-11-12T12:43:13.707Z,2.93
2022-11-12T12:46:01.411Z,1.77
2022-11-12T12:48:51.637Z,1.53
2022-11-12T12:51:39.283Z,1.83
2022-11-12T12:54:41.917Z,1.60
2022-11-12T12:57:35.956Z,1.57
2022-11-12T13:00:31.353Z,3.57
2022-11-12T13:03:47.050Z,1.52
2022-11-12T13:06:37.853Z,1.50
2022-11-12T13:09:28.540Z,1.57
2022-11-12T13:12:20.050Z,1.30
2022-11-12T13:15:19.360Z,1.97
2022-11-12T13:18:15.902Z,1.67
2022-11-12T13:21:16.270Z,2.47
2022-11-12T13:24:07.490Z,1.60
2022-11-12T13:26:58.118Z,2.10
2022-11-12T13:29:47.180Z,1.47
2022-11-12T13:32:40.463Z,2.23
2022-11-12T13:35:34.724Z,2.10
2022-11-12T13:38:22.967Z,1.65
2022-11-12T13:41:24.313Z,1.93
2022-11-12T13:44:14.988Z,2.10
2022-11-12T13:47:02.738Z,2.83
2022-11-12T13:49:51.258Z,2.27
2022-11-12T13:52:40.138Z,2.67
2022-11-12T13:55:27.669Z,2.17
2022-11-12T13:58:32.289Z,2.20
2022-11-12T14:01:22.637Z,2.43
2022-11-12T14:04:12.762Z,3.40
2022-11-12T14:07:03.935Z,4.67
2022-11-12T14:10:06.275Z,3.90
2022-11-12T14:13:18.229Z,4.73
2022-11-12T14:16:25.019Z,3.65
2022-11-12T14:19:30.794Z,3.43
2022-11-12T14:22:20.671Z,2.33
2022-11-12T14:25:17.189Z,2.30
2022-11-12T14:28:05.232Z,2.80
2022-11-12T14:30:52.954Z,2.07
2022-11-12T14:33:40.493Z,2.17
2022-11-12T14:36:28.056Z,2.43
2022-11-12T14:39:15.751Z,2.23
2022-11-12T14:42:03.416Z,3.53
2022-11-12T14:44:50.971Z,3.47
2022-11-12T14:47:38.632Z,3.33
2022-11-12T14:50:37.452Z,3.27
2022-11-12T14:53:25.391Z,3.10
2022-11-12T14:56:15.971Z,3.30
2022-11-12T14:59:04.779Z,3.43
2022-11-12T15:02:46.109Z,3.00
2022-11-12T15:05:18.267Z,2.47
2022-11-12T15:08:09.176Z,3.60
2022-11-12T15:10:57.294Z,1.93
2022-11-12T15:13:46.465Z,2.77
2022-11-12T15:16:35.874Z,2.83
2022-11-12T15:19:26.357Z,2.10
2022-11-12T15:22:24.027Z,3.58
2022-11-12T15:25:20.985Z,2.63
2022-11-12T15:28:16.944Z,3.67
2022-11-12T15:31:19.274Z,5.13
2022-11-12T15:34:30.659Z,5.87
2022-11-12T15:37:23.736Z,3.20
2022-11-12T15:40:15.852Z,4.33
2022-11-12T15:43:04.347Z,3.83
2022-11-12T15:45:53.540Z,4.40
2022-11-12T15:48:42.489Z,4.20
2022-11-12T15:51:30.034Z,3.90
2022-11-12T15:54:17.822Z,4.20
2022-11-12T15:57:06.134Z,4.03
2022-11-12T16:00:07.909Z,2.93
2022-11-12T16:03:00.300Z,2.53
2022-11-12T16:05:50.008Z,3.03
2022-11-12T16:08:37.752Z,3.67
2022-11-12T16:11:37.594Z,3.13
2022-11-12T16:14:25.346Z,4.00
2022-11-12T16:17:19.857Z,3.17
2022-11-12T16:20:22.382Z,2.87
2022-11-12T16:23:10.190Z,2.93
2022-11-12T16:25:58.009Z,2.65
2022-11-12T16:28:45.463Z,3.83
2022-11-12T16:31:33.017Z,3.70
2022-11-12T16:34:20.498Z,4.22
2022-11-12T16:37:09.182Z,5.03
2022-11-12T16:39:57.171Z,4.03
2022-11-12T16:42:47.481Z,4.13
2022-11-12T16:45:40.572Z,2.87
2022-11-12T16:48:28.066Z,4.50
2022-11-12T16:51:18.394Z,3.30
2022-11-12T16:54:06.428Z,3.33
2022-11-12T16:56:54.256Z,3.30
2022-11-12T16:59:41.812Z,3.53
2022-11-12T17:02:29.205Z,2.70
2022-11-12T17:05:20.345Z,2.80
2022-11-12T17:08:08.066Z,2.45
2022-11-12T17:10:55.243Z,3.37
2022-11-12T17:13:43.629Z,2.97
2022-11-12T17:16:31.392Z,2.35
2022-11-12T17:19:18.900Z,2.10
2022-11-12T17:22:06.959Z,2.80
2022-11-12T17:24:54.351Z,3.07
2022-11-12T17:27:42.253Z,2.90
2022-11-12T17:30:30.001Z,2.80
2022-11-12T17:33:17.272Z,2.40
2022-11-12T17:36:07.716Z,4.03
2022-11-12T17:38:59.287Z,7.97
2022-11-12T17:41:46.685Z,5.93
2022-11-12T17:44:34.389Z,6.60
2022-11-12T17:47:21.877Z,8.30
2022-11-12T17:50:09.811Z,9.67
2022-11-12T17:52:57.465Z,9.70
2022-11-12T17:55:44.948Z,7.70
2022-11-12T17:58:33.166Z,8.20
2022-11-12T18:01:26.185Z,6.53
2022-11-12T18:04:13.606Z,5.77
2022-11-12T18:07:01.100Z,4.77
2022-11-12T18:09:48.839Z,4.57
2022-11-12T18:12:36.633Z,3.13
2022-11-12T18:15:24.083Z,2.47
2022-11-12T18:18:11.752Z,2.87
2022-11-12T18:20:59.477Z,3.97
2022-11-12T18:23:47.460Z,4.30
2022-11-12T18:26:34.977Z,3.87
2022-11-12T18:29:22.359Z,4.10
2022-11-12T18:32:10.230Z,4.13
2022-11-12T18:34:58.042Z,5.27
2022-11-12T18:37:45.863Z,6.27
2022-11-12T18:40:33.290Z,7.63
2022-11-12T18:43:20.873Z,7.20
2022-11-12T18:46:10.652Z,6.43
2022-11-12T18:48:58.840Z,6.80
2022-11-12T18:51:46.322Z,7.60
2022-11-12T18:54:33.807Z,9.03
2022-11-12T18:57:21.079Z,12.33
2022-11-12T19:00:08.859Z,14.07
2022-11-12T19:02:56.292Z,15.27
2022-11-12T19:05:44.411Z,13.70
2022-11-12T19:08:32.019Z,14.53
2022-11-12T19:11:21.817Z,16.17
2022-11-12T19:14:09.608Z,16.30
2022-11-12T19:16:57.714Z,19.52
2022-11-12T19:19:45.515Z,21.37
2022-11-12T19:22:33.013Z,21.97
2022-11-12T19:25:21.871Z,20.20
2022-11-12T19:28:08.835Z,21.20
2022-11-12T19:30:56.954Z,22.77
2022-11-12T19:33:44.937Z,24.37
2022-11-12T19:36:32.168Z,23.95
2022-11-12T19:39:19.983Z,25.23
2022-11-12T19:42:08.960Z,26.67
2022-11-12T19:44:56.472Z,29.97
2022-11-12T19:47:43.938Z,27.57
2022-11-12T19:50:33.217Z,27.20
2022-11-12T19:53:20.817Z,24.37
2022-11-12T19:56:08.967Z,22.47
2022-11-12T19:58:56.571Z,29.13
2022-11-12T20:01:44.362Z,25.77
2022-11-12T20:04:31.857Z,24.80
2022-11-12T20:07:19.283Z,24.27
2022-11-12T20:10:07.287Z,23.27
2022-11-12T20:12:56.001Z,23.50
2022-11-12T20:15:43.963Z,21.62
2022-11-12T20:18:31.403Z,21.10
2022-11-12T20:21:18.914Z,19.30
2022-11-12T20:24:08.396Z,21.83
2022-11-12T20:26:56.085Z,22.03
2022-11-12T20:29:44.494Z,20.77
2022-11-12T20:32:31.965Z,20.83
2022-11-12T20:35:22.128Z,21.03
2022-11-12T20:38:08.841Z,22.47
2022-11-12T20:41:02.671Z,21.60
2022-11-12T20:43:54.963Z,17.50
2022-11-12T20:46:42.431Z,17.35
2022-11-12T20:49:30.122Z,17.60
2022-11-12T20:52:18.518Z,17.42
2022-11-12T20:55:06.986Z,19.07
2022-11-12T20:57:54.225Z,18.70
2022-11-12T21:00:41.945Z,18.67
2022-11-12T21:03:29.869Z,18.10
2022-11-12T21:06:29.447Z,19.37
2022-11-12T21:09:17.885Z,17.53
2022-11-12T21:12:07.312Z,16.67
2022-11-12T21:14:55.368Z,18.90
2022-11-12T21:17:42.864Z,17.20
2022-11-12T21:20:30.515Z,19.00
2022-11-12T21:23:18.255Z,17.67
2022-11-12T21:26:13.570Z,17.60
2022-11-12T21:29:00.650Z,15.10
2022-11-12T21:31:48.233Z,18.23
2022-11-12T21:34:35.766Z,17.63
2022-11-12T21:37:23.573Z,15.20
2022-11-12T21:40:11.281Z,15.96
2022-11-12T21:43:01.163Z,16.57
2022-11-12T21:45:48.864Z,15.10
2022-11-12T21:48:37.120Z,15.83
2022-11-12T21:51:30.549Z,16.80
2022-11-12T21:54:18.344Z,16.30
2022-11-12T21:57:07.061Z,15.85
2022-11-12T22:00:00.276Z,18.07
2022-11-12T22:02:44.217Z,15.70
2022-11-12T22:05:31.435Z,14.60
2022-11-12T22:08:19.007Z,16.53
2022-11-12T22:11:09.699Z,18.03
2022-11-12T22:13:57.589Z,17.27
2022-11-12T22:16:45.467Z,17.20
2022-11-12T22:19:34.389Z,17.37
2022-11-12T22:22:21.634Z,19.70
2022-11-12T22:25:09.287Z,19.47
2022-11-12T22:27:56.692Z,21.33
2022-11-12T22:30:44.330Z,20.20
2022-11-12T22:33:32.111Z,20.13
2022-11-12T22:36:21.853Z,18.70
2022-11-12T22:39:09.608Z,18.57
2022-11-12T22:41:57.297Z,18.17
2022-11-12T22:44:44.492Z,17.97
2022-11-12T22:47:33.687Z,17.30
2022-11-12T22:50:21.224Z,17.97
2022-11-12T22:53:08.641Z,17.97
2022-11-12T22:55:58.482Z,17.45
2022-11-12T22:58:47.727Z,17.73
2022-11-12T23:01:36.989Z,19.60
2022-11-12T23:04:24.537Z,17.07
2022-11-12T23:07:11.870Z,19.17
2022-11-12T23:10:00.000Z,20.85
2022-11-12T23:12:47.406Z,18.37
2022-11-12T23:15:35.148Z,17.67
2022-11-12T23:18:22.876Z,18.73
2022-11-12T23:21:16.170Z,17.03
2022-11-12T23:24:03.449Z,18.40
2022-11-12T23:26:50.894Z,19.03
2022-11-12T23:29:38.324Z,19.53
2022-11-12T23:32:25.942Z,18.87
2022-11-12T23:35:13.483Z,18.73
2022-11-12T23:38:00.936Z,18.87
2022-11-12T23:40:56.745Z,19.70
2022-11-12T23:43:44.599Z,19.17
2022-11-12T23:46:32.283Z,17.20
2022-11-12T23:49:20.147Z,17.05
2022-11-12T23:52:07.951Z,18.83
2022-11-12T23:54:55.917Z,18.35
2022-11-12T23:57:43.074Z,16.35
